Pocono Pines, PA

8:12 AM EDT on June 02, 2015 (GMT -0400)
Lake Naomi | | Change Station
CLOSE
Current Station
Personal Weather Station
Location: Pocono Pines, PA
Elevation: 1785 ft
Nearby Weather Stations

Elev 1785 ft 41.12 °N, 75.48 °W | Updated 9 seconds ago

Rain
Rain
47.3 °F
Feels Like 47 °F
N
0.0
Wind Variable Wind from SE
Gusts 0.0 mph

Today
High -- | Low -- °F
--% Chance of Precip.
Yesterday
High -- | Low -- °F
Precip. -- in
5:31 AM 8:28 PM
Full, 100% visible
Pressure 30.12 in
Visibility 10.0 miles
Clouds Few 600 ft
Mostly Cloudy 5500 ft
Overcast 8000 ft
Windchill 47 °F
Dew Point 47 °F
Humidity 99%
Rainfall 0.79 in
Snow Depth Not available.
UV 1.0 out of 12
Pollen .90 out of 12
Air Quality Not available.
Flu Activity Sporadic
METAR KMPO 021153Z AUTO 05007KT 10SM -RA FEW006 BKN055 OVC080 08/07 A3010 RMK AO2 SLP199 6//// 7//// T00830067 10083 20078 53003 PNO

More Conditions Fewer Conditions

Pressure 30.12 in
Visibility 10.0 miles
Clouds Few 600 ft
Mostly Cloudy 5500 ft
Overcast 8000 ft
Windchill 47 °F
Dew Point 47 °F
Humidity 99%
Rainfall 0.79 in
Snow Depth Not available.
UV 1.0 out of 12
Pollen .90 out of 12
Air Quality Not available.
Flu Activity Sporadic
METAR KMPO 021153Z AUTO 05007KT 10SM -RA FEW006 BKN055 OVC080 08/07 A3010 RMK AO2 SLP199 6//// 7//// T00830067 10083 20078 53003 PNO

More Conditions Fewer Conditions

Nowcast | as of 5:54 am EDT on June 2, 2015

Between now and 800 am, rain showers will continue to affect the Pocono region. Rainfall amounts up to a quarter inch are possible, especially to the north of Interstate 80.

×

10-Day Weather Forecast

Almanac

Astronomy

Jun. 02, 2015 Rise Set
Actual Time
Civil Twilight
Nautical Twilight
Astronomical Twilight
Moon
Length of Visible Light
Length of Day
Tomorrow will be .
, % of the Moon is Illuminated

Today's Extremes

State Highs State Lows

Community

WunderPhotos

Upload Photos

1,825,879 photos uploaded!

WunderBlogs® & News

Nearby

Air Quality

  Air Quality AQ Index Pollutant
Not available.

Snow Depth

Station Depth Elevation

Earthquake Activity

City Distance Mag. Time & Date
Minimum magnitude displayed is 2.5.

Coastal Water Temperatures

Place Temperature

Stations

Nearby Weather Stations

Station Location Temp. Windchill Dew Point Humidity Wind Precip. Elev Updated Type